Etusivu
METAR-TAF:

METAR-TAF

Lentoasemat :

Alamogordo, New Mexico, Yhdysvallat

Leveyspiiri: 32-50N, Pituuspiiri: 105-59W, korkeus merenpinnasta: 1279 m

Tämänhetkinen sää

Tämä raportti tehtiin 26 minuuttia sitten, kello 22.15 UTC
Tuuli 14 kn pohjoisesta/koillisesta puuskistuen 23 kn:hen
Lämpötila 35°C
Kosteus 18%
Ilmanpaine 1018 hPa
Näkyvyys: 16.1 km
Hajonneita pilviä 12000 ft:n korkeudessa

METAR: KALM 172215Z AUTO 03014G23KT 10SM BKN120 35/07 A3006 RMK AO2 LTG DSNT N

Aika: 16:41 (22:41 UTC)


TAF: puuttuu

Säähavainnot ja -ennusteet yli 4000 lentoasemalta (METAR- ja TAF-raportit).

Käytössä olevat sääasemat on merkitty karttaan keltaisilla ja punaisilla pisteillä.

Aseta hiiri pisteen päälle nähdäksesi sääaseman nimen.

Klikkaa sitten nähdäksesi säähavainnot ja -ennusteet.

Kartan vaihtaminen: klikkaa mustalla rastilla varustettuja vihreitä pisteitä, niin voit zoomata sisään; viivalla varustettua vihreää pistettä, niin voit zoomata ulos tai vihreitä nuolia, niin pääset viereisille kartoille.


METAR-TAF: